Spring Lake, North Carolina
Current Conditions -  °F | °C
As of 10:58 PM on Thursday 18 Dec 2014 (Local Time) from KPOB Reporting Station
Overcast Overcast  
Wind Chill: 41°   Ceiling: 6500
Heat Index: 41°   Visibility: 10mi
Dew Point: 34°   Wind: 1mph
Humidity: 76%   Direction: 250°WSW
Pressure: 30.11"   Gusts: NA
Location:  35.17°N, 78.97°W
Report Text: KPOB 190358Z AUTO 25001KT 10SM OVC065 05/01 A3011 RMK AO2 SLP200 T00520012
Loading
Personal Weather Stations






























Interactive Weather Map New forecast layout! Learn more

10-Day Weather Forecast

Advertisements
Track Severe Weather on mobile